Nearby METAR Reports

 

KBUF - Buffalo/Cheektow, New York, USA
Distance from station: 0 0mi, 0km
Updated: 04/16/2024 3:54pm
Mostly cloudy
Mostly cloudy
 Wind from NNW
Wind: NNW 14 mph, 22 km/h, Gust: 20 mph, 31 km/h
Temperature: 63°F, 17°C
Dew Point: 34°F, 1°C
Humidity: 34%
Barometer: 30.17 inHg, 1021.7 hPa
Clouds: Mostly cloudy
Visibility: 10 miles, 16 km
Cloud details: Few Clouds 6500 ft
Mostly cloudy 26000 ft
2024/04/16 19:54 KBUF 161954Z 33012G17KT 10SM FEW065 BKN260 17/01 A3017 RMK AO2 SLP217 T01720011
KIAG - Niagara Falls, New York, USA
Distance from station: NW 16mi, 26km
Updated: 04/16/2024 3:53pm
Clear
Clear
 Wind from varies
Wind: varies 3 mph, 6 km/h
Temperature: 63°F, 17°C
Dew Point: 34°F, 1°C
Humidity: 34%
Barometer: 30.17 inHg, 1021.7 hPa
Clouds: Clear
Visibility: 10 miles, 16 km
2024/04/16 19:53 KIAG 161953Z VRB03KT 10SM CLR 17/01 A3017 RMK AO2 SLP219 T01720006
 
CWPC - Port Colborne(Au, Ontario, Canada
Distance from station: W 27mi, 43km
Updated: 01/24/2023 6:00pm
NOT Current

 Wind from W
Wind: W 17 mph, 28 km/h
Temperature: 34°F, 1°C
Wind Chill: 23°F, -5°C
Dew Point: 27°F, -3°C
Humidity: 75%
2023/01/24 23:00 CWPC 242300Z AUTO 26015KT 01/M03 RMK AO1 PK WND 25024/2212 T00101031 50017
CYSN - St. Catharines A, Ontario, Canada
Distance from station: NW 29mi, 46km
Updated: 04/16/2024 8:00am
NOT Current
Few Clouds
Few Clouds
 Wind from W
Wind: W 6 mph, 9 km/h
Temperature: 48°F, 9°C
Wind Chill: 45°F, 7°C
Dew Point: 36°F, 2°C
Humidity: 62%
Barometer: 30.18 inHg, 1022 hPa
Clouds: Few Clouds
Visibility: 15 miles, 24 km
Cloud details: Few Clouds 8000 ft
2024/04/16 12:00 CYSN 161200Z 28005KT 15SM FEW080 09/02 A3018 RMK AC1 AC TR SLP224
 
CWWZ - Port Weller (mar, Ontario, Canada
Distance from station: NW 33mi, 53km
Updated: 04/16/2024 8:00am
NOT Current

 Wind from WSW
Wind: WSW 5 mph, 7 km/h
Temperature: 48°F, 9°C
Wind Chill: 46°F, 8°C
Dew Point: 39°F, 4°C
Humidity: 71%
2024/04/16 12:00 CWWZ 161200Z AUTO 25004KT 09/04 RMK AO1 SLP226 T00930041 53024
CXVN - Vineland (au8), Ontario, Canada
Distance from station: WNW 38mi, 61km
Updated: 04/16/2024 8:00am
NOT Current

 Wind from WNW
Wind: WNW 3 mph, 6 km/h
Temperature: 50°F, 10°C
Dew Point: 34°F, 1°C
Humidity: 54%
2024/04/16 12:00 CXVN 161200Z AUTO 30003KT 10/01 RMK AO1 SLP228 T00980012 52024
 
KDKK - Dunkirk, New York, USA
Distance from station: SW 41mi, 66km
Updated: 04/16/2024 3:53pm
Clear
Clear
 Wind from NNW
Wind: NNW 7 mph, 11 km/h
Temperature: 64°F, 18°C
Dew Point: 34°F, 1°C
Humidity: 32%
Barometer: 30.17 inHg, 1021.7 hPa
Clouds: Clear
Visibility: 10 miles, 16 km
2024/04/16 19:53 KDKK 161953Z AUTO 34006KT 10SM CLR 18/01 A3017 RMK AO2 SLP219 T01780006
KOLE - Olean, New York, USA
Distance from station: SSE 52mi, 83km
Updated: 04/16/2024 4:15pm
Clear
Clear
 Wind from NNW
Wind: NNW 3 mph, 6 km/h
Temperature: 61°F, 16°C
Dew Point: 32°F, 0°C
Humidity: 34%
Barometer: 30.15 inHg, 1021 hPa
Clouds: Clear
Visibility: 10 miles, 16 km
2024/04/16 20:15 KOLE 162015Z AUTO 33003KT 10SM CLR 16/00 A3015 RMK AO2
 
KROC - Rochester, New York, USA
Distance from station: ENE 55mi, 88km
Updated: 04/16/2024 3:54pm
Partly cloudy
Partly cloudy
 Wind from N
Wind: N 14 mph, 22 km/h
Temperature: 61°F, 16°C
Dew Point: 37°F, 3°C
Humidity: 42%
Barometer: 30.18 inHg, 1022 hPa
Clouds: Partly cloudy
Visibility: 10 miles, 16 km
Cloud details: Few Clouds 5000 ft
Partly cloudy 25000 ft
2024/04/16 19:54 KROC 161954Z 36012KT 10SM FEW050 SCT250 16/03 A3018 RMK AO2 SLP225 T01610033
KDSV - Dansville, New York, USA
Distance from station: ESE 57mi, 92km
Updated: 04/16/2024 9:54am
NOT Current
Clear
Clear
 Wind from calm
Wind: Calm
Temperature: 55°F, 13°C
Dew Point: 36°F, 2°C
Humidity: 47%
Barometer: 30.19 inHg, 1022.4 hPa
Clouds: Clear
Visibility: 10 miles, 16 km
2024/04/16 13:54 KDSV 161354Z AUTO 00000KT 10SM CLR 13/02 A3019 RMK AO2 SLP233 T01330017
 
CWWB - Burlington Piers, Ontario, Canada
Distance from station: WNW 59mi, 94km
Updated: 04/16/2024 8:00am
NOT Current

 Wind from SW
Wind: SW 3 mph, 6 km/h
Temperature: 48°F, 9°C
2024/04/16 12:00 CWWB 161200Z AUTO 23003KT 09/ RMK AO1 SLP226 T0092 52023
CYTZ - Toronto Il Vor, Ontario, Canada
Distance from station: NW 59mi, 95km
Updated: 04/16/2024 8:00am
NOT Current
Clear
Clear
 Wind from NW
Wind: NW 6 mph, 9 km/h
Temperature: 48°F, 9°C
Wind Chill: 45°F, 7°C
Dew Point: 32°F, 0°C
Humidity: 54%
Barometer: 30.17 inHg, 1021.7 hPa
Clouds: Clear
Visibility: 9 miles, 14 km
2024/04/16 12:00 CYTZ 161200Z AUTO 32005KT 9SM CLR 09/00 A3017 RMK SLP221
 
CXTO - Toronto City, Ontario, Canada
Distance from station: NW 61mi, 98km
Updated: 04/16/2024 8:00am
NOT Current

 
Temperature: 48°F, 9°C
Dew Point: 32°F, 0°C
Humidity: 54%
2024/04/16 12:00 CXTO 161200Z AUTO 09/M00 RMK AO1 SLP220 T00901001 53019
KJHW - Jamestown, New York, USA
Distance from station: SSW 62mi, 99km
Updated: 04/16/2024 3:56pm
Clear
Clear
 Wind from NNW
Wind: NNW 13 mph, 20 km/h
Temperature: 63°F, 17°C
Dew Point: 36°F, 2°C
Humidity: 37%
Barometer: 30.15 inHg, 1021 hPa
Clouds: Clear
Visibility: 10 miles, 16 km
2024/04/16 19:56 KJHW 161956Z AUTO 34011KT 10SM CLR 17/02 A3015 RMK AO2 SLP217 T01720022
 
CYHM - Hamilton Airport, Ontario, Canada
Distance from station: WNW 63mi, 101km
Updated: 04/16/2024 8:00am
NOT Current
Few Clouds
Few Clouds
 Wind from NW
Wind: NW 3 mph, 6 km/h
Temperature: 46°F, 8°C
Dew Point: 32°F, 0°C
Humidity: 57%
Barometer: 30.18 inHg, 1022 hPa
Clouds: Few Clouds
Visibility: 15 miles, 24 km
Cloud details: Few Clouds 25000 ft
2024/04/16 12:00 CYHM 161200Z 32003KT 250V340 15SM FEW250 08/00 A3018 RMK CI1 CI TR SLP227
CXHM - Hamilton Rbg Cs, Ontario, Canada
Distance from station: WNW 64mi, 102km
Updated: 04/16/2024 8:00am
NOT Current

 Wind from WSW
Wind: WSW 1 mph, 2 km/h
Temperature: 48°F, 9°C
Dew Point: 32°F, 0°C
Humidity: 54%
2024/04/16 12:00 CXHM 161200Z AUTO 24001KT 09/M00 RMK AO1 SLP227 T00901002 53022
 
CYYZ - Toronto/Pearson, Ontario, Canada
Distance from station: NW 67mi, 108km
Updated: 04/16/2024 8:00am
NOT Current
Clear
Clear
 Wind from NNW
Wind: NNW 8 mph, 13 km/h
Temperature: 46°F, 8°C
Wind Chill: 42°F, 6°C
Dew Point: 32°F, 0°C
Humidity: 57%
Barometer: 30.17 inHg, 1021.7 hPa
Clouds: Clear
Visibility: 15 miles, 24 km
2024/04/16 12:00 CYYZ 161200Z 34007KT 15SM SKC 08/00 A3017 RMK SLP223
CYOO - Oshawa, Ontario, Canada
Distance from station: N 68mi, 110km
Updated: 04/16/2024 8:00am
NOT Current
Clear
Clear
 Wind from N
Wind: N 13 mph, 20 km/h
Temperature: 46°F, 8°C
Wind Chill: 40°F, 4°C
Dew Point: 34°F, 1°C
Humidity: 62%
Barometer: 30.16 inHg, 1021.3 hPa
Clouds: Clear
Visibility: 9 miles, 14 km
2024/04/16 12:00 CYOO 161200Z AUTO 36011KT 9SM CLR 08/01 A3016 RMK SLP219
 
KELZ - Wellsville, New York, USA
Distance from station: SE 69mi, 111km
Updated: 04/16/2024 3:56pm
Clear
Clear
 Wind from NNE
Wind: NNE 14 mph, 22 km/h, Gust: 20 mph, 31 km/h
Temperature: 64°F, 18°C
Dew Point: 32°F, 0°C
Humidity: 30%
Barometer: 30.14 inHg, 1020.7 hPa
Clouds: Clear
Visibility: 10 miles, 16 km
2024/04/16 19:56 KELZ 161956Z AUTO 02012G17KT 10SM CLR 18/00 A3014 RMK AO2 SLP210 T01830000
CWNC - Cobourg (mars), Ontario, Canada
Distance from station: NNE 76mi, 122km
Updated: 04/16/2024 8:00am
NOT Current

 Wind from N
Wind: N 8 mph, 13 km/h
Temperature: 46°F, 8°C
Wind Chill: 42°F, 6°C
Dew Point: 36°F, 2°C
Humidity: 66%
2024/04/16 12:00 CWNC 161200Z AUTO 36007KT 08/02 RMK AO1 SLP211 T00780018 53021